Terminal Aerodrome Forecast
Issued by NWS

Home | Current Version | Previous Version | Text Only | Print | Product List | Glossary On
Versions: 1 2 3 4 5 6 7 8 9 10 11 12 13
000
FTUS44 KEPZ 241700
TAFLRU
TAF
KLRU 241740Z 2418/2518 13010KT P6SM SCT100
     FM250400 11005KT P6SM FEW180=

USA.gov is the U.S. government's official web portal to all federal, state and local government web resources and services.